sensor_id;sensor_type;location;lat;lon;timestamp;P1;durP1;ratioP1;P2;durP2;ratioP2
48026;SDS011;50714;49.208;5.364;2023-03-14T00:00:09;8.80;;;4.72;;
48026;SDS011;50714;49.208;5.364;2023-03-14T00:10:13;11.25;;;7.25;;
48026;SDS011;50714;49.208;5.364;2023-03-14T00:20:14;7.03;;;3.78;;
48026;SDS011;50714;49.208;5.364;2023-03-14T00:30:15;5.93;;;2.30;;
48026;SDS011;50714;49.208;5.364;2023-03-14T00:40:15;4.13;;;1.90;;
48026;SDS011;50714;49.208;5.364;2023-03-14T00:50:16;3.80;;;1.45;;
48026;SDS011;50714;49.208;5.364;2023-03-14T01:00:16;5.90;;;1.95;;
48026;SDS011;50714;49.208;5.364;2023-03-14T01:10:17;4.30;;;1.50;;
48026;SDS011;50714;49.208;5.364;2023-03-14T01:20:18;3.38;;;1.38;;
48026;SDS011;50714;49.208;5.364;2023-03-14T01:30:19;3.65;;;1.40;;
48026;SDS011;50714;49.208;5.364;2023-03-14T01:40:19;3.53;;;1.20;;
48026;SDS011;50714;49.208;5.364;2023-03-14T01:50:20;3.27;;;1.40;;
48026;SDS011;50714;49.208;5.364;2023-03-14T02:00:21;3.42;;;1.30;;
48026;SDS011;50714;49.208;5.364;2023-03-14T02:10:24;3.38;;;1.23;;
48026;SDS011;50714;49.208;5.364;2023-03-14T02:30:46;2.88;;;1.10;;
48026;SDS011;50714;49.208;5.364;2023-03-14T02:40:46;3.53;;;1.00;;
48026;SDS011;50714;49.208;5.364;2023-03-14T02:50:48;2.47;;;1.10;;
48026;SDS011;50714;49.208;5.364;2023-03-14T03:00:51;2.80;;;1.30;;
48026;SDS011;50714;49.208;5.364;2023-03-14T03:10:51;4.00;;;1.02;;
48026;SDS011;50714;49.208;5.364;2023-03-14T03:20:52;4.30;;;1.17;;
48026;SDS011;50714;49.208;5.364;2023-03-14T03:30:52;2.50;;;0.80;;
48026;SDS011;50714;49.208;5.364;2023-03-14T03:40:53;2.42;;;1.00;;
48026;SDS011;50714;49.208;5.364;2023-03-14T03:50:53;4.07;;;1.48;;
48026;SDS011;50714;49.208;5.364;2023-03-14T04:00:53;5.20;;;1.10;;
48026;SDS011;50714;49.208;5.364;2023-03-14T04:10:57;2.72;;;0.90;;
48026;SDS011;50714;49.208;5.364;2023-03-14T04:20:58;3.80;;;0.90;;
48026;SDS011;50714;49.208;5.364;2023-03-14T04:30:59;2.60;;;1.30;;
48026;SDS011;50714;49.208;5.364;2023-03-14T04:41:06;3.65;;;1.17;;
48026;SDS011;50714;49.208;5.364;2023-03-14T04:51:07;3.15;;;1.10;;
48026;SDS011;50714;49.208;5.364;2023-03-14T05:01:07;3.10;;;1.40;;
48026;SDS011;50714;49.208;5.364;2023-03-14T05:11:09;4.13;;;2.47;;
48026;SDS011;50714;49.208;5.364;2023-03-14T05:21:10;8.65;;;5.43;;
48026;SDS011;50714;49.208;5.364;2023-03-14T05:31:10;7.60;;;4.22;;
48026;SDS011;50714;49.208;5.364;2023-03-14T05:41:11;5.25;;;2.80;;
48026;SDS011;50714;49.208;5.364;2023-03-14T05:51:11;3.70;;;1.80;;
48026;SDS011;50714;49.208;5.364;2023-03-14T06:01:11;1.50;;;0.82;;
48026;SDS011;50714;49.208;5.364;2023-03-14T06:11:12;1.60;;;1.20;;
48026;SDS011;50714;49.208;5.364;2023-03-14T06:21:12;0.93;;;0.80;;
48026;SDS011;50714;49.208;5.364;2023-03-14T06:31:12;1.23;;;0.57;;
48026;SDS011;50714;49.208;5.364;2023-03-14T06:41:13;1.05;;;0.45;;
48026;SDS011;50714;49.208;5.364;2023-03-14T06:51:13;1.55;;;1.00;;
48026;SDS011;50714;49.208;5.364;2023-03-14T07:01:17;1.00;;;0.80;;
48026;SDS011;50714;49.208;5.364;2023-03-14T07:11:21;1.00;;;0.80;;
48026;SDS011;50714;49.208;5.364;2023-03-14T07:21:22;0.82;;;0.63;;
48026;SDS011;50714;49.208;5.364;2023-03-14T07:31:22;1.17;;;0.90;;
48026;SDS011;50714;49.208;5.364;2023-03-14T07:41:23;1.50;;;0.80;;
48026;SDS011;50714;49.208;5.364;2023-03-14T07:51:24;0.70;;;0.70;;
48026;SDS011;50714;49.208;5.364;2023-03-14T08:01:24;0.50;;;0.50;;
48026;SDS011;50714;49.208;5.364;2023-03-14T08:11:24;0.50;;;0.50;;
48026;SDS011;50714;49.208;5.364;2023-03-14T08:21:25;1.42;;;0.73;;
48026;SDS011;50714;49.208;5.364;2023-03-14T08:31:25;1.17;;;0.80;;
48026;SDS011;50714;49.208;5.364;2023-03-14T08:41:25;2.20;;;1.10;;
48026;SDS011;50714;49.208;5.364;2023-03-14T08:51:26;2.92;;;1.67;;
48026;SDS011;50714;49.208;5.364;2023-03-14T09:01:26;2.63;;;1.42;;
48026;SDS011;50714;49.208;5.364;2023-03-14T09:11:26;3.15;;;1.98;;
48026;SDS011;50714;49.208;5.364;2023-03-14T09:21:27;3.10;;;1.50;;
48026;SDS011;50714;49.208;5.364;2023-03-14T09:31:27;2.28;;;1.05;;
48026;SDS011;50714;49.208;5.364;2023-03-14T09:41:33;3.25;;;1.23;;
48026;SDS011;50714;49.208;5.364;2023-03-14T09:51:36;1.80;;;1.15;;
48026;SDS011;50714;49.208;5.364;2023-03-14T10:01:38;2.20;;;0.98;;
48026;SDS011;50714;49.208;5.364;2023-03-14T10:11:39;2.33;;;0.90;;
48026;SDS011;50714;49.208;5.364;2023-03-14T10:21:40;1.08;;;0.50;;
48026;SDS011;50714;49.208;5.364;2023-03-14T10:31:46;1.25;;;0.70;;
48026;SDS011;50714;49.208;5.364;2023-03-14T10:41:50;1.88;;;0.68;;
48026;SDS011;50714;49.208;5.364;2023-03-14T10:52:23;0.80;;;0.63;;
48026;SDS011;50714;49.208;5.364;2023-03-14T11:43:39;2.30;;;1.02;;
48026;SDS011;50714;49.208;5.364;2023-03-14T12:03:49;1.65;;;0.75;;
48026;SDS011;50714;49.208;5.364;2023-03-14T12:13:56;2.85;;;1.00;;
48026;SDS011;50714;49.208;5.364;2023-03-14T12:23:56;3.90;;;1.33;;
48026;SDS011;50714;49.208;5.364;2023-03-14T12:34:40;3.83;;;1.20;;
48026;SDS011;50714;49.208;5.364;2023-03-14T12:54:40;3.30;;;1.10;;
48026;SDS011;50714;49.208;5.364;2023-03-14T13:04:48;2.10;;;1.00;;
48026;SDS011;50714;49.208;5.364;2023-03-14T13:14:50;3.17;;;1.90;;
48026;SDS011;50714;49.208;5.364;2023-03-14T13:24:58;1.70;;;0.95;;
48026;SDS011;50714;49.208;5.364;2023-03-14T13:35:00;2.20;;;0.90;;
48026;SDS011;50714;49.208;5.364;2023-03-14T13:45:01;1.83;;;0.90;;
48026;SDS011;50714;49.208;5.364;2023-03-14T13:55:03;3.13;;;1.02;;
48026;SDS011;50714;49.208;5.364;2023-03-14T14:05:05;2.38;;;1.00;;
48026;SDS011;50714;49.208;5.364;2023-03-14T14:25:06;2.95;;;1.00;;
48026;SDS011;50714;49.208;5.364;2023-03-14T14:35:08;3.23;;;1.00;;
48026;SDS011;50714;49.208;5.364;2023-03-14T14:45:22;1.95;;;0.80;;
48026;SDS011;50714;49.208;5.364;2023-03-14T14:55:28;2.13;;;0.77;;
48026;SDS011;50714;49.208;5.364;2023-03-14T15:05:32;2.30;;;0.90;;
48026;SDS011;50714;49.208;5.364;2023-03-14T15:15:35;1.50;;;0.77;;
48026;SDS011;50714;49.208;5.364;2023-03-14T15:25:36;1.73;;;0.65;;
48026;SDS011;50714;49.208;5.364;2023-03-14T15:35:38;1.05;;;0.73;;
48026;SDS011;50714;49.208;5.364;2023-03-14T15:45:39;1.30;;;0.90;;
48026;SDS011;50714;49.208;5.364;2023-03-14T15:55:41;1.10;;;0.70;;
48026;SDS011;50714;49.208;5.364;2023-03-14T16:05:41;1.33;;;0.70;;
48026;SDS011;50714;49.208;5.364;2023-03-14T16:15:42;2.22;;;0.80;;
48026;SDS011;50714;49.208;5.364;2023-03-14T16:25:44;1.13;;;0.70;;
48026;SDS011;50714;49.208;5.364;2023-03-14T16:35:54;3.28;;;2.47;;
48026;SDS011;50714;49.208;5.364;2023-03-14T16:46:00;13.70;;;12.50;;
48026;SDS011;50714;49.208;5.364;2023-03-14T16:56:00;2.15;;;1.60;;
48026;SDS011;50714;49.208;5.364;2023-03-14T17:06:00;2.35;;;1.08;;
48026;SDS011;50714;49.208;5.364;2023-03-14T17:16:02;2.00;;;1.10;;
48026;SDS011;50714;49.208;5.364;2023-03-14T17:26:03;1.33;;;1.00;;
48026;SDS011;50714;49.208;5.364;2023-03-14T17:36:05;0.85;;;0.80;;
48026;SDS011;50714;49.208;5.364;2023-03-14T17:46:07;1.08;;;0.93;;
48026;SDS011;50714;49.208;5.364;2023-03-14T17:56:10;1.00;;;0.70;;
48026;SDS011;50714;49.208;5.364;2023-03-14T18:06:12;2.42;;;1.20;;
48026;SDS011;50714;49.208;5.364;2023-03-14T18:16:14;1.83;;;1.10;;
48026;SDS011;50714;49.208;5.364;2023-03-14T18:26:15;1.65;;;1.20;;
48026;SDS011;50714;49.208;5.364;2023-03-14T18:36:15;4.25;;;1.35;;
48026;SDS011;50714;49.208;5.364;2023-03-14T18:46:16;2.13;;;1.60;;
48026;SDS011;50714;49.208;5.364;2023-03-14T18:56:16;3.45;;;2.63;;
48026;SDS011;50714;49.208;5.364;2023-03-14T19:06:17;8.63;;;7.40;;
48026;SDS011;50714;49.208;5.364;2023-03-14T19:16:19;3.88;;;1.98;;
48026;SDS011;50714;49.208;5.364;2023-03-14T19:26:21;4.60;;;3.20;;
48026;SDS011;50714;49.208;5.364;2023-03-14T19:36:26;2.63;;;1.80;;
48026;SDS011;50714;49.208;5.364;2023-03-14T19:46:28;3.22;;;1.52;;
48026;SDS011;50714;49.208;5.364;2023-03-14T19:56:30;2.22;;;1.27;;
48026;SDS011;50714;49.208;5.364;2023-03-14T20:06:30;1.50;;;1.00;;
48026;SDS011;50714;49.208;5.364;2023-03-14T20:16:31;3.33;;;1.42;;
48026;SDS011;50714;49.208;5.364;2023-03-14T20:26:34;1.90;;;1.05;;
48026;SDS011;50714;49.208;5.364;2023-03-14T20:36:36;2.08;;;1.00;;
48026;SDS011;50714;49.208;5.364;2023-03-14T20:46:37;1.80;;;1.10;;
48026;SDS011;50714;49.208;5.364;2023-03-14T20:56:38;2.33;;;1.10;;
48026;SDS011;50714;49.208;5.364;2023-03-14T21:06:38;1.77;;;1.23;;
48026;SDS011;50714;49.208;5.364;2023-03-14T21:16:41;2.55;;;1.77;;
48026;SDS011;50714;49.208;5.364;2023-03-14T21:26:41;3.83;;;2.83;;
48026;SDS011;50714;49.208;5.364;2023-03-14T21:36:41;9.18;;;7.32;;
48026;SDS011;50714;49.208;5.364;2023-03-14T21:46:42;9.13;;;7.88;;
48026;SDS011;50714;49.208;5.364;2023-03-14T21:56:44;18.92;;;14.45;;
48026;SDS011;50714;49.208;5.364;2023-03-14T22:06:45;11.15;;;7.57;;
48026;SDS011;50714;49.208;5.364;2023-03-14T22:16:45;7.60;;;4.97;;
48026;SDS011;50714;49.208;5.364;2023-03-14T22:26:46;13.73;;;10.00;;
48026;SDS011;50714;49.208;5.364;2023-03-14T22:36:46;19.75;;;17.80;;
48026;SDS011;50714;49.208;5.364;2023-03-14T22:46:46;64.72;;;50.97;;
48026;SDS011;50714;49.208;5.364;2023-03-14T22:56:47;20.90;;;16.40;;
48026;SDS011;50714;49.208;5.364;2023-03-14T23:06:47;15.05;;;10.15;;
48026;SDS011;50714;49.208;5.364;2023-03-14T23:16:48;21.17;;;14.30;;
48026;SDS011;50714;49.208;5.364;2023-03-14T23:26:49;22.45;;;14.98;;
48026;SDS011;50714;49.208;5.364;2023-03-14T23:36:50;19.52;;;12.80;;
48026;SDS011;50714;49.208;5.364;2023-03-14T23:46:51;7.55;;;5.20;;
48026;SDS011;50714;49.208;5.364;2023-03-14T23:56:52;5.05;;;4.07;;
